Time;durP1;ratioP1;P1;durP2;ratioP2;P2;SDS_P1;SDS_P2;PMS_P1;PMS_P2;Temp;Humidity;BMP_temperature;BMP_pressure;BME280_temperature;BME280_humidity;BME280_pressure;Samples;Min_cycle;Max_cycle;Signal;HPM_P1;HPM_P2
2022/11/25 11:57:34;;;;;;;;;34.33;34.33;;;;;;;;5113226;27;13531;-73
2022/11/25 12:00:03;;;;;;;;;37.00;32.33;;;;;;;;5093036;28;8820;-72
2022/11/25 12:02:34;;;;;;;;;43.33;38.67;;;;;;;;5091474;28;8822;-73
2022/11/25 12:04:59;;;;;;;;;45.67;38.00;;;;;;;;5093531;28;12258;-72
2022/11/25 12:07:30;;;;;;;;;38.50;35.25;;;;;;;;5095307;28;11579;-73
2022/11/25 12:10:05;;;;;;;;;33.00;31.25;;;;;;;;5095783;28;8835;-73
2022/11/25 12:12:39;;;;;;;;;31.00;28.00;;;;;;;;5092930;28;11606;-72
2022/11/25 12:15:23;;;;;;;;;36.00;29.75;;;;;;;;5096693;28;11506;-72
2022/11/25 12:18:00;;;;;;;;;33.00;31.00;;;;;;;;5094413;28;12266;-72
2022/11/25 12:20:44;;;;;;;;;37.50;37.25;;;;;;;;5093707;28;11536;-72
2022/11/25 12:23:17;;;;;;;;;29.75;29.75;;;;;;;;5093036;28;11533;-73
2022/11/25 12:25:44;;;;;;;;;40.25;35.75;;;;;;;;5095052;28;11523;-72
2022/11/25 12:28:09;;;;;;;;;39.00;34.50;;;;;;;;5095039;28;12277;-72
2022/11/25 12:30:43;;;;;;;;;38.50;33.75;;;;;;;;5094395;28;11564;-71
2022/11/25 12:33:12;;;;;;;;;39.50;35.75;;;;;;;;5091852;28;8887;-73
2022/11/25 12:35:56;;;;;;;;;41.00;37.25;;;;;;;;5094892;28;12308;-72
2022/11/25 12:38:29;;;;;;;;;38.50;36.50;;;;;;;;5094861;28;12415;-73
2022/11/25 12:41:00;;;;;;;;;64.33;46.67;;;;;;;;5093049;28;11536;-73
2022/11/25 12:43:48;;;;;;;;;36.75;32.00;;;;;;;;5095099;28;8810;-72
2022/11/25 12:46:19;;;;;;;;;27.00;22.50;;;;;;;;5101730;28;11532;-71
2022/11/25 12:48:44;;;;;;;;;31.75;27.25;;;;;;;;5104730;28;11507;-72
2022/11/25 12:51:22;;;;;;;;;27.75;26.25;;;;;;;;5105284;28;12346;-75
2022/11/25 12:53:56;;;;;;;;;28.25;27.50;;;;;;;;5105846;28;8796;-74
2022/11/25 12:56:26;;;;;;;;;29.50;28.25;;;;;;;;5105581;28;11648;-72
2022/11/25 12:58:51;;;;;;;;;30.50;27.25;;;;;;;;5105530;28;11508;-73
2022/11/25 13:01:48;;;;;;;;;32.75;30.25;;;;;;;;5101671;28;11513;-74
2022/11/25 13:04:17;;;;;;;;;35.75;31.25;;;;;;;;5059522;27;10345;-72
2022/11/25 13:07:00;;;;;;;;;35.75;28.50;;;;;;;;5032962;28;11667;-72
2022/11/25 13:09:26;;;;;;;;;31.75;26.75;;;;;;;;5010708;28;11655;-73
2022/11/25 13:12:09;;;;;;;;;28.00;24.25;;;;;;;;5079840;28;11643;-73
2022/11/25 13:14:54;;;;;;;;;28.25;22.50;;;;;;;;5071277;28;8834;-74
2022/11/25 13:17:20;;;;;;;;;29.25;26.00;;;;;;;;5071855;28;11549;-72
2022/11/25 13:19:45;;;;;;;;;26.00;24.25;;;;;;;;5070045;28;11742;-75
2022/11/25 13:22:17;;;;;;;;;25.25;24.00;;;;;;;;5071249;28;11657;-74
2022/11/25 13:24:42;;;;;;;;;23.50;23.50;;;;;;;;5071332;28;8897;-72
2022/11/25 13:27:26;;;;;;;;;26.25;20.75;;;;;;;;5080590;28;11649;-75
2022/11/25 13:29:52;;;;;;;;;29.75;24.75;;;;;;;;5077760;28;9772;-74
2022/11/25 13:32:26;;;;;;;;;26.75;24.00;;;;;;;;5078985;28;12253;-75
2022/11/25 13:35:11;;;;;;;;;28.50;27.00;;;;;;;;5078001;28;11501;-75
2022/11/25 13:37:42;;;;;;;;;36.25;32.50;;;;;;;;5080447;28;11605;-75
2022/11/25 13:40:24;;;;;;;;;34.50;29.75;;;;;;;;5072681;28;11539;-73
2022/11/25 13:42:50;;;;;;;;;29.00;24.50;;;;;;;;5079003;28;11646;-73
2022/11/25 13:45:36;;;;;;;;;29.75;28.00;;;;;;;;5091116;28;11658;-73
2022/11/25 13:48:05;;;;;;;;;26.25;25.00;;;;;;;;5089731;28;11513;-74
2022/11/25 13:50:32;;;;;;;;;42.75;39.00;;;;;;;;5090623;28;11599;-74
2022/11/25 13:52:59;;;;;;;;;43.67;39.33;;;;;;;;5091585;28;11502;-73
2022/11/25 13:55:31;;;;;;;;;41.50;39.00;;;;;;;;5090834;28;11519;-74
2022/11/25 13:58:14;;;;;;;;;43.50;39.75;;;;;;;;5091077;28;11512;-73
2022/11/25 14:00:58;;;;;;;;;41.25;38.50;;;;;;;;5088589;28;12218;-71
2022/11/25 14:03:23;;;;;;;;;46.25;39.00;;;;;;;;5091155;28;12216;-72
2022/11/25 14:05:54;;;;;;;;;43.25;39.00;;;;;;;;5090807;28;11557;-72
2022/11/25 14:08:20;;;;;;;;;40.50;37.00;;;;;;;;5090544;28;9747;-72
2022/11/25 14:10:51;;;;;;;;;40.75;39.00;;;;;;;;5089840;28;11529;-72
2022/11/25 14:13:34;;;;;;;;;45.50;40.25;;;;;;;;5090590;28;8789;-72
2022/11/25 14:16:00;;;;;;;;;50.67;43.00;;;;;;;;5090718;28;11521;-72
2022/11/25 14:18:25;;;;;;;;;47.00;41.67;;;;;;;;5090401;28;12195;-71
2022/11/25 14:20:56;;;;;;;;;51.33;43.33;;;;;;;;5089802;28;8812;-71
2022/11/25 14:23:30;;;;;;;;;50.67;41.67;;;;;;;;5078237;28;8837;-72
2022/11/25 14:26:00;;;;;;;;;46.00;41.00;;;;;;;;5065313;28;11582;-72
2022/11/25 14:28:34;;;;;;;;;49.33;44.00;;;;;;;;5069648;28;11535;-71
2022/11/25 14:31:04;;;;;;;;;54.33;43.67;;;;;;;;5070426;28;11519;-70
2022/11/25 14:33:35;;;;;;;;;50.00;43.00;;;;;;;;5070104;28;8800;-71
2022/11/25 14:36:04;;;;;;;;;55.67;45.67;;;;;;;;5069514;28;8800;-71
2022/11/25 14:38:47;;;;;;;;;55.00;46.00;;;;;;;;5069508;28;11494;-72
2022/11/25 14:41:16;;;;;;;;;58.00;46.33;;;;;;;;5068061;28;8869;-72
2022/11/25 14:44:00;;;;;;;;;57.33;46.00;;;;;;;;5068239;28;8907;-72
2022/11/25 14:46:26;;;;;;;;;59.67;49.00;;;;;;;;5068640;28;8850;-73
2022/11/25 14:48:52;;;;;;;;;56.33;45.00;;;;;;;;5066620;28;8837;-75
2022/11/25 14:51:18;;;;;;;;;59.33;47.00;;;;;;;;5068550;28;8896;-73
2022/11/25 14:53:44;;;;;;;;;66.00;47.33;;;;;;;;5069901;28;8791;-73
2022/11/25 14:56:14;;;;;;;;;62.33;51.33;;;;;;;;5069569;28;8845;-72
2022/11/25 14:58:47;;;;;;;;;63.33;50.33;;;;;;;;5069610;28;8826;-75
2022/11/25 15:01:19;;;;;;;;;64.33;52.00;;;;;;;;5069316;28;9565;-73
2022/11/25 15:03:45;;;;;;;;;65.67;51.00;;;;;;;;5069669;28;8786;-76
2022/11/25 15:06:11;;;;;;;;;72.00;54.33;;;;;;;;5069543;28;8834;-73
2022/11/25 15:08:43;;;;;;;;;69.33;54.00;;;;;;;;5069165;28;8790;-73
2022/11/25 15:11:17;;;;;;;;;65.00;51.33;;;;;;;;5068793;28;8845;-73
2022/11/25 15:13:44;;;;;;;;;72.33;57.00;;;;;;;;5084361;28;8789;-73
2022/11/25 15:16:09;;;;;;;;;67.33;55.00;;;;;;;;5089478;28;8796;-73
2022/11/25 15:18:36;;;;;;;;;67.33;54.00;;;;;;;;5088019;28;8808;-74
2022/11/25 15:21:02;;;;;;;;;74.67;57.67;;;;;;;;5081280;28;9608;-72
2022/11/25 15:23:36;;;;;;;;;72.67;56.67;;;;;;;;5068451;28;8818;-73
2022/11/25 15:26:04;;;;;;;;;65.00;54.00;;;;;;;;5068044;28;8815;-73
2022/11/25 15:28:33;;;;;;;;;63.67;50.67;;;;;;;;5069183;28;8805;-72
2022/11/25 15:31:00;;;;;;;;;68.00;55.00;;;;;;;;5068769;28;8791;-75
2022/11/25 15:33:26;;;;;;;;;66.67;56.00;;;;;;;;5069203;28;8991;-73
2022/11/25 15:35:55;;;;;;;;;69.33;56.00;;;;;;;;5067120;28;8799;-74
2022/11/25 15:38:35;;;;;;;;;69.33;56.33;;;;;;;;5067051;28;8846;-74
2022/11/25 15:41:01;;;;;;;;;68.00;53.67;;;;;;;;5068728;28;8981;-73
2022/11/25 16:30:18;;;;;;;;;66.00;55.00;;;;;;;;5103252;27;13398;-70
2022/11/25 16:32:43;;;;;;;;;64.67;50.67;;;;;;;;5086717;28;8823;-69
2022/11/25 16:35:08;;;;;;;;;66.67;56.00;;;;;;;;5086581;28;8811;-72
2022/11/25 16:37:34;;;;;;;;;64.33;54.00;;;;;;;;5086626;28;9548;-72
2022/11/25 16:39:59;;;;;;;;;70.67;52.67;;;;;;;;5085267;28;8834;-73
2022/11/25 16:42:24;;;;;;;;;66.00;53.67;;;;;;;;5089652;28;8827;-71
2022/11/25 16:44:50;;;;;;;;;69.00;56.00;;;;;;;;5106751;28;8861;-69
2022/11/25 16:47:17;;;;;;;;;68.33;54.33;;;;;;;;5105964;28;8815;-69
2022/11/25 16:49:42;;;;;;;;;73.33;57.67;;;;;;;;5094432;28;8834;-69
2022/11/25 16:52:08;;;;;;;;;68.00;56.33;;;;;;;;5085973;28;8794;-68
2022/11/25 16:54:33;;;;;;;;;77.00;58.33;;;;;;;;5086715;28;8799;-71
2022/11/25 16:56:59;;;;;;;;;69.33;56.33;;;;;;;;5084890;28;8814;-69
2022/11/25 16:59:24;;;;;;;;;69.00;54.67;;;;;;;;5085451;28;8818;-71
2022/11/25 17:01:51;;;;;;;;;70.00;55.00;;;;;;;;5106405;28;9523;-68
2022/11/25 17:04:16;;;;;;;;;69.67;55.00;;;;;;;;5106640;28;8819;-70
2022/11/25 17:06:43;;;;;;;;;62.33;53.00;;;;;;;;5106629;28;8890;-69
2022/11/25 17:09:09;;;;;;;;;64.00;49.33;;;;;;;;5106094;28;8832;-70
2022/11/25 17:11:45;;;;;;;;;64.00;51.33;;;;;;;;5085094;28;8818;-73
2022/11/25 17:14:22;;;;;;;;;67.00;55.33;;;;;;;;5104795;28;8820;-72
2022/11/25 17:16:47;;;;;;;;;69.33;57.67;;;;;;;;5106258;28;8792;-71
2022/11/25 17:19:14;;;;;;;;;64.67;53.33;;;;;;;;5104440;28;8896;-71
2022/11/25 17:21:39;;;;;;;;;65.00;54.67;;;;;;;;5104717;28;8800;-69
2022/11/25 17:24:09;;;;;;;;;66.67;54.67;;;;;;;;5105635;28;8934;-68
2022/11/25 17:26:36;;;;;;;;;66.33;54.00;;;;;;;;5105871;28;8810;-68
2022/11/25 17:29:03;;;;;;;;;70.67;55.67;;;;;;;;5100023;28;8875;-72
2022/11/25 17:31:30;;;;;;;;;66.33;55.00;;;;;;;;5101615;28;8854;-69
2022/11/25 17:33:55;;;;;;;;;71.00;57.00;;;;;;;;5105851;28;8815;-72
2022/11/25 17:36:21;;;;;;;;;76.67;59.00;;;;;;;;5104784;28;8816;-73
2022/11/25 17:38:47;;;;;;;;;67.33;54.67;;;;;;;;5104342;28;8823;-74
2022/11/25 17:41:13;;;;;;;;;68.67;56.00;;;;;;;;5072501;28;8815;-73
2022/11/25 17:43:38;;;;;;;;;67.67;54.67;;;;;;;;5086352;28;8907;-74
2022/11/25 17:46:04;;;;;;;;;73.00;57.33;;;;;;;;5091880;28;8796;-74
2022/11/25 17:48:29;;;;;;;;;73.00;59.00;;;;;;;;5092009;28;8843;-75
2022/11/25 17:50:54;;;;;;;;;66.33;53.33;;;;;;;;5075039;28;9568;-74
2022/11/25 17:53:20;;;;;;;;;71.00;58.00;;;;;;;;5071503;28;8849;-70
2022/11/25 17:55:45;;;;;;;;;70.67;56.67;;;;;;;;5068912;28;8826;-74
2022/11/25 17:58:13;;;;;;;;;73.00;60.00;;;;;;;;5069772;28;8874;-73
2022/11/25 18:00:40;;;;;;;;;75.00;59.67;;;;;;;;5069572;28;8818;-72
2022/11/25 18:03:08;;;;;;;;;77.00;60.00;;;;;;;;5071121;28;8786;-73
2022/11/25 18:05:34;;;;;;;;;82.67;62.67;;;;;;;;5065176;28;9580;-74
2022/11/25 18:07:59;;;;;;;;;73.67;58.00;;;;;;;;5056033;28;8986;-73
2022/11/25 18:10:26;;;;;;;;;73.00;58.67;;;;;;;;5072432;28;8848;-73
2022/11/25 18:12:52;;;;;;;;;76.33;60.33;;;;;;;;5091398;28;8962;-73
2022/11/25 18:15:20;;;;;;;;;74.00;60.00;;;;;;;;5066431;28;8810;-73
2022/11/25 18:17:46;;;;;;;;;79.67;60.33;;;;;;;;5053957;28;9738;-72
2022/11/25 18:20:14;;;;;;;;;70.00;58.33;;;;;;;;5073904;28;8919;-72
2022/11/25 18:22:40;;;;;;;;;77.00;61.33;;;;;;;;5091262;28;8783;-72
2022/11/25 18:25:05;;;;;;;;;77.67;61.33;;;;;;;;5090999;28;8977;-73
2022/11/25 18:27:31;;;;;;;;;71.00;59.33;;;;;;;;5091061;28;9544;-72
2022/11/25 18:29:56;;;;;;;;;76.67;62.00;;;;;;;;5087238;28;8878;-73
2022/11/25 18:32:23;;;;;;;;;73.00;58.00;;;;;;;;5090904;28;8879;-72
2022/11/25 18:34:48;;;;;;;;;70.67;58.33;;;;;;;;5090967;28;8902;-76
2022/11/25 18:37:14;;;;;;;;;77.33;58.33;;;;;;;;5091265;28;9045;-72
2022/11/25 18:39:39;;;;;;;;;72.33;60.33;;;;;;;;5085829;28;8841;-74
2022/11/25 18:42:05;;;;;;;;;72.00;60.33;;;;;;;;5090664;28;8918;-73
2022/11/25 18:44:34;;;;;;;;;85.67;67.33;;;;;;;;5090571;28;8804;-72
2022/11/25 18:47:00;;;;;;;;;81.67;65.00;;;;;;;;5090474;28;8796;-71
2022/11/25 18:49:25;;;;;;;;;84.67;66.00;;;;;;;;5072544;28;9535;-72
2022/11/25 18:51:50;;;;;;;;;73.33;56.33;;;;;;;;5067691;28;8850;-74
2022/11/25 18:54:15;;;;;;;;;74.00;61.00;;;;;;;;5070060;28;8798;-72
2022/11/25 18:56:41;;;;;;;;;80.00;62.67;;;;;;;;5069640;28;8797;-72
2022/11/25 18:59:10;;;;;;;;;80.00;61.67;;;;;;;;5069827;28;8810;-72
2022/11/25 19:01:36;;;;;;;;;80.33;64.00;;;;;;;;5068357;28;8802;-72
2022/11/25 19:04:01;;;;;;;;;78.33;63.67;;;;;;;;5070256;28;8783;-72
2022/11/25 19:06:28;;;;;;;;;83.00;61.67;;;;;;;;5068932;28;8891;-73
2022/11/25 19:08:54;;;;;;;;;71.67;59.67;;;;;;;;5067603;28;9033;-72
2022/11/25 19:11:28;;;;;;;;;78.33;64.00;;;;;;;;5082896;28;8831;-74
2022/11/25 19:13:58;;;;;;;;;81.33;63.67;;;;;;;;5089463;28;8780;-73
2022/11/25 19:16:25;;;;;;;;;75.33;62.33;;;;;;;;5076368;28;8790;-72
2022/11/25 19:18:50;;;;;;;;;80.00;62.33;;;;;;;;5069463;28;8935;-74
2022/11/25 19:21:16;;;;;;;;;77.67;63.00;;;;;;;;5083040;28;8927;-72
2022/11/25 19:23:42;;;;;;;;;81.33;65.33;;;;;;;;5090105;28;8955;-74
2022/11/25 19:26:13;;;;;;;;;71.67;59.67;;;;;;;;5089917;28;8810;-76
2022/11/25 19:28:39;;;;;;;;;81.67;63.33;;;;;;;;5089714;28;8942;-82
2022/11/25 19:31:04;;;;;;;;;77.33;63.67;;;;;;;;5069618;28;8815;-69
2022/11/25 19:33:32;;;;;;;;;83.00;64.33;;;;;;;;5068585;28;8803;-71
2022/11/25 19:35:58;;;;;;;;;79.00;62.00;;;;;;;;5068314;28;8826;-71
2022/11/25 19:38:24;;;;;;;;;67.33;55.33;;;;;;;;5068576;28;8833;-72
2022/11/25 19:40:53;;;;;;;;;82.00;64.33;;;;;;;;5067665;28;8807;-72
2022/11/25 19:43:19;;;;;;;;;76.67;61.33;;;;;;;;5067592;28;8941;-71
2022/11/25 19:45:44;;;;;;;;;82.00;64.33;;;;;;;;5066658;28;8849;-68
2022/11/25 19:48:12;;;;;;;;;77.00;62.00;;;;;;;;5068180;28;8845;-70
2022/11/25 19:50:38;;;;;;;;;79.00;64.00;;;;;;;;5067523;28;8798;-69
2022/11/25 19:53:03;;;;;;;;;72.33;60.00;;;;;;;;5068207;28;8884;-68
2022/11/25 19:55:30;;;;;;;;;77.67;61.00;;;;;;;;5068550;28;9020;-69
2022/11/25 19:57:55;;;;;;;;;75.67;61.00;;;;;;;;5064092;28;8841;-70
2022/11/25 20:00:21;;;;;;;;;70.00;58.33;;;;;;;;5066727;28;9525;-70
2022/11/25 20:02:48;;;;;;;;;70.67;58.00;;;;;;;;5068156;28;8771;-68
2022/11/25 20:05:33;;;;;;;;;75.33;60.33;;;;;;;;5068265;28;8879;-68
2022/11/25 20:07:58;;;;;;;;;74.00;61.33;;;;;;;;5064624;28;8825;-68
2022/11/25 20:10:25;;;;;;;;;67.33;58.00;;;;;;;;5069597;28;8791;-68
2022/11/25 20:12:51;;;;;;;;;75.00;61.67;;;;;;;;5070539;28;8799;-72
2022/11/25 20:15:16;;;;;;;;;75.00;62.00;;;;;;;;5068097;28;8779;-72
2022/11/25 20:17:43;;;;;;;;;73.67;58.33;;;;;;;;5068477;28;8957;-73
2022/11/25 20:20:12;;;;;;;;;76.67;62.00;;;;;;;;5069429;28;8807;-71
2022/11/25 20:22:41;;;;;;;;;73.33;59.00;;;;;;;;5070529;28;8826;-70
2022/11/25 20:25:09;;;;;;;;;74.00;61.67;;;;;;;;5072669;28;8943;-69
2022/11/25 20:27:35;;;;;;;;;76.00;62.00;;;;;;;;5074405;28;8810;-70
2022/11/25 20:30:00;;;;;;;;;71.00;57.00;;;;;;;;5072450;28;8846;-72
2022/11/25 20:32:27;;;;;;;;;67.33;55.67;;;;;;;;5072919;28;8787;-70
2022/11/25 20:34:55;;;;;;;;;75.67;62.00;;;;;;;;5079320;28;8791;-71
2022/11/25 20:37:23;;;;;;;;;77.67;61.33;;;;;;;;5065936;28;8830;-72
2022/11/25 20:39:51;;;;;;;;;71.00;58.33;;;;;;;;5076015;28;8865;-69
2022/11/25 20:42:16;;;;;;;;;70.67;56.67;;;;;;;;5079430;28;8799;-71
2022/11/25 20:44:41;;;;;;;;;70.33;57.33;;;;;;;;5080644;28;8807;-71
2022/11/25 20:47:15;;;;;;;;;71.67;60.33;;;;;;;;5070193;28;8790;-70
2022/11/25 20:49:40;;;;;;;;;73.33;61.33;;;;;;;;5066589;28;8841;-71
2022/11/25 20:52:06;;;;;;;;;24.33;15.67;;;;;;;;5068371;28;8807;-72
2022/11/25 20:54:34;;;;;;;;;74.00;60.67;;;;;;;;5070428;28;8879;-72
2022/11/25 20:57:00;;;;;;;;;74.33;58.67;;;;;;;;5067579;28;8795;-74
2022/11/25 20:59:27;;;;;;;;;73.00;60.33;;;;;;;;5067299;28;8804;-74
2022/11/25 21:01:53;;;;;;;;;70.67;58.00;;;;;;;;5067428;28;8821;-73
2022/11/25 21:04:18;;;;;;;;;66.00;55.33;;;;;;;;5066085;28;8826;-72
2022/11/25 21:06:44;;;;;;;;;61.33;52.67;;;;;;;;5067789;28;8775;-73
2022/11/25 21:09:14;;;;;;;;;63.00;54.33;;;;;;;;5067317;28;8937;-74
2022/11/25 21:11:39;;;;;;;;;62.67;49.33;;;;;;;;5067163;28;8891;-73
2022/11/25 21:14:10;;;;;;;;;59.33;49.33;;;;;;;;5071221;28;9500;-72
2022/11/25 21:16:36;;;;;;;;;61.67;51.00;;;;;;;;5068167;28;8825;-72
2022/11/25 21:19:01;;;;;;;;;60.00;50.00;;;;;;;;5081232;28;8803;-70
2022/11/25 21:21:31;;;;;;;;;63.00;52.00;;;;;;;;5077202;28;8927;-69
2022/11/25 21:24:01;;;;;;;;;61.67;50.33;;;;;;;;5081796;28;8811;-70
2022/11/25 21:26:26;;;;;;;;;51.00;42.00;;;;;;;;5083828;28;8791;-70
2022/11/25 21:28:52;;;;;;;;;58.67;49.00;;;;;;;;5081575;28;8814;-71
2022/11/25 21:31:19;;;;;;;;;61.00;50.00;;;;;;;;5070663;28;8855;-69
2022/11/25 21:33:45;;;;;;;;;65.00;53.33;;;;;;;;5078850;28;8874;-70
2022/11/25 21:36:19;;;;;;;;;58.33;49.33;;;;;;;;5079414;28;8814;-69
2022/11/25 21:38:45;;;;;;;;;58.00;48.67;;;;;;;;5076209;28;8835;-72
2022/11/25 21:41:10;;;;;;;;;54.00;46.00;;;;;;;;5072171;28;8798;-69
2022/11/25 21:43:40;;;;;;;;;60.00;48.67;;;;;;;;5081595;28;8834;-69
2022/11/25 21:46:06;;;;;;;;;51.67;47.67;;;;;;;;5092404;28;8792;-70
2022/11/25 21:48:35;;;;;;;;;55.33;48.33;;;;;;;;5092276;28;8819;-69
2022/11/25 21:51:01;;;;;;;;;56.67;47.67;;;;;;;;5092631;28;8807;-70
2022/11/25 21:53:26;;;;;;;;;62.33;46.33;;;;;;;;5092444;28;8799;-69
2022/11/25 21:55:51;;;;;;;;;63.00;49.67;;;;;;;;5088663;28;9502;-69
2022/11/25 21:58:23;;;;;;;;;48.33;42.00;;;;;;;;5087981;28;8790;-68
2022/11/25 22:00:59;;;;;;;;;49.33;44.00;;;;;;;;5079282;28;8800;-69
2022/11/25 22:03:25;;;;;;;;;45.75;38.25;;;;;;;;5077035;28;11537;-68
2022/11/25 22:05:50;;;;;;;;;40.50;37.25;;;;;;;;5079734;28;11616;-69
2022/11/25 22:08:16;;;;;;;;;29.75;25.00;;;;;;;;5089237;28;11543;-69
2022/11/25 22:10:44;;;;;;;;;26.25;26.00;;;;;;;;5059363;28;9497;-69
2022/11/25 22:13:21;;;;;;;;;21.75;20.75;;;;;;;;5081343;28;9775;-70
2022/11/25 22:15:48;;;;;;;;;11.75;10.50;;;;;;;;5090648;28;11610;-69
2022/11/25 22:18:20;;;;;;;;;47.25;39.50;;;;;;;;5091180;28;11468;-70
2022/11/25 22:20:46;;;;;;;;;34.00;32.00;;;;;;;;5087545;28;11547;-69
2022/11/25 22:23:15;;;;;;;;;37.00;34.25;;;;;;;;5088905;28;11512;-71
2022/11/25 22:25:41;;;;;;;;;38.33;36.33;;;;;;;;5090903;28;8827;-70
2022/11/25 22:28:08;;;;;;;;;34.50;30.75;;;;;;;;5084560;28;11527;-70
2022/11/25 22:30:34;;;;;;;;;31.75;24.00;;;;;;;;5081270;28;9584;-68
2022/11/25 22:33:00;;;;;;;;;30.75;27.50;;;;;;;;5077799;28;11563;-69
2022/11/25 22:35:26;;;;;;;;;26.00;25.50;;;;;;;;5073094;28;8915;-69
2022/11/25 22:37:52;;;;;;;;;31.50;27.25;;;;;;;;5069982;28;11514;-69
2022/11/25 22:40:17;;;;;;;;;35.00;27.75;;;;;;;;5070169;28;8841;-69
2022/11/25 22:42:45;;;;;;;;;41.75;39.75;;;;;;;;5077137;28;11538;-69
2022/11/25 22:45:30;;;;;;;;;35.33;32.33;;;;;;;;5090668;28;8791;-69
2022/11/25 22:47:56;;;;;;;;;39.33;35.00;;;;;;;;5089048;28;11541;-69
2022/11/25 22:50:21;;;;;;;;;34.25;31.00;;;;;;;;5090111;28;11598;-71
2022/11/25 22:52:47;;;;;;;;;33.00;30.33;;;;;;;;5090557;28;11492;-71
2022/11/25 22:55:23;;;;;;;;;28.33;28.33;;;;;;;;5085462;28;8799;-71
2022/11/25 22:57:49;;;;;;;;;34.67;33.00;;;;;;;;5071225;28;8790;-70
2022/11/25 23:00:16;;;;;;;;;31.00;31.00;;;;;;;;5070323;28;11495;-71
2022/11/25 23:02:41;;;;;;;;;28.00;28.00;;;;;;;;5070615;28;11520;-70
2022/11/25 23:05:26;;;;;;;;;33.33;30.67;;;;;;;;5070294;28;11542;-71
2022/11/25 23:07:52;;;;;;;;;33.00;30.00;;;;;;;;5070313;28;8802;-72
2022/11/25 23:10:21;;;;;;;;;40.00;36.00;;;;;;;;5070129;28;11556;-71
2022/11/25 23:12:46;;;;;;;;;33.00;30.33;;;;;;;;5070261;28;8911;-72
2022/11/25 23:15:13;;;;;;;;;36.67;29.33;;;;;;;;5070247;28;8782;-71
2022/11/25 23:17:38;;;;;;;;;36.33;35.67;;;;;;;;5070140;28;8832;-72
2022/11/25 23:20:12;;;;;;;;;40.00;35.33;;;;;;;;5070190;28;8960;-71
2022/11/25 23:22:38;;;;;;;;;34.67;31.67;;;;;;;;5069349;28;9474;-71
2022/11/25 23:25:10;;;;;;;;;43.00;41.67;;;;;;;;5072268;28;8909;-71
2022/11/25 23:27:36;;;;;;;;;41.00;41.00;;;;;;;;5070121;28;9522;-72
2022/11/25 23:30:01;;;;;;;;;45.00;39.67;;;;;;;;5069728;28;8825;-71
2022/11/25 23:32:26;;;;;;;;;39.00;37.00;;;;;;;;5069795;28;8790;-72
2022/11/25 23:34:52;;;;;;;;;38.33;34.00;;;;;;;;5069945;28;8821;-72
2022/11/25 23:37:17;;;;;;;;;45.00;43.00;;;;;;;;5075531;22;8964;-73
2022/11/25 23:39:44;;;;;;;;;46.67;40.67;;;;;;;;5050803;28;8841;-73
2022/11/25 23:42:14;;;;;;;;;37.33;37.33;;;;;;;;5066554;28;8877;-73
2022/11/25 23:44:40;;;;;;;;;43.00;38.33;;;;;;;;5051091;28;11440;-73
2022/11/25 23:47:06;;;;;;;;;43.00;39.00;;;;;;;;5050908;28;9521;-73
2022/11/25 23:49:34;;;;;;;;;35.00;33.00;;;;;;;;5051078;28;8842;-73
2022/11/25 23:52:01;;;;;;;;;33.67;31.67;;;;;;;;5051008;28;11454;-72
2022/11/25 23:54:38;;;;;;;;;31.33;31.33;;;;;;;;5033200;28;11515;-73
2022/11/25 23:57:08;;;;;;;;;40.00;38.00;;;;;;;;5051012;28;11432;-73
2022/11/25 23:59:33;;;;;;;;;33.00;32.00;;;;;;;;5066334;28;8922;-74
